sensor_id;sensor_type;location;lat;lon;timestamp;P1;durP1;ratioP1;P2;durP2;ratioP2
76604;SDS011;73179;50.978;16.998;2024-02-26T00:01:59;43.65;;;24.40;;
76604;SDS011;73179;50.978;16.998;2024-02-26T00:04:25;46.72;;;24.30;;
76604;SDS011;73179;50.978;16.998;2024-02-26T00:06:51;39.70;;;22.23;;
76604;SDS011;73179;50.978;16.998;2024-02-26T00:09:19;40.42;;;20.70;;
76604;SDS011;73179;50.978;16.998;2024-02-26T00:11:45;41.83;;;20.63;;
76604;SDS011;73179;50.978;16.998;2024-02-26T00:14:11;40.42;;;21.88;;
76604;SDS011;73179;50.978;16.998;2024-02-26T00:16:40;42.10;;;23.13;;
76604;SDS011;73179;50.978;16.998;2024-02-26T00:19:07;52.65;;;28.45;;
76604;SDS011;73179;50.978;16.998;2024-02-26T00:21:33;44.47;;;25.60;;
76604;SDS011;73179;50.978;16.998;2024-02-26T00:23:59;46.10;;;25.63;;
76604;SDS011;73179;50.978;16.998;2024-02-26T00:26:25;45.17;;;23.75;;
76604;SDS011;73179;50.978;16.998;2024-02-26T00:28:51;42.33;;;23.60;;
76604;SDS011;73179;50.978;16.998;2024-02-26T00:31:18;41.90;;;23.65;;
76604;SDS011;73179;50.978;16.998;2024-02-26T00:33:43;42.30;;;23.95;;
76604;SDS011;73179;50.978;16.998;2024-02-26T00:36:10;53.08;;;28.33;;
76604;SDS011;73179;50.978;16.998;2024-02-26T00:38:36;48.33;;;26.85;;
76604;SDS011;73179;50.978;16.998;2024-02-26T00:41:02;57.35;;;30.15;;
76604;SDS011;73179;50.978;16.998;2024-02-26T00:43:28;48.75;;;30.48;;
76604;SDS011;73179;50.978;16.998;2024-02-26T00:45:55;57.80;;;30.50;;
76604;SDS011;73179;50.978;16.998;2024-02-26T00:48:20;52.47;;;29.98;;
76604;SDS011;73179;50.978;16.998;2024-02-26T00:50:47;54.22;;;29.83;;
76604;SDS011;73179;50.978;16.998;2024-02-26T00:53:13;52.85;;;30.13;;
76604;SDS011;73179;50.978;16.998;2024-02-26T00:55:39;59.15;;;34.72;;
76604;SDS011;73179;50.978;16.998;2024-02-26T00:58:05;54.72;;;30.70;;
76604;SDS011;73179;50.978;16.998;2024-02-26T01:00:31;57.53;;;33.88;;
76604;SDS011;73179;50.978;16.998;2024-02-26T01:02:57;52.28;;;28.95;;
76604;SDS011;73179;50.978;16.998;2024-02-26T01:05:25;50.60;;;29.65;;
76604;SDS011;73179;50.978;16.998;2024-02-26T01:07:51;48.83;;;26.48;;
76604;SDS011;73179;50.978;16.998;2024-02-26T01:10:17;45.47;;;26.88;;
76604;SDS011;73179;50.978;16.998;2024-02-26T01:12:43;52.20;;;28.67;;
76604;SDS011;73179;50.978;16.998;2024-02-26T01:15:09;56.78;;;30.52;;
76604;SDS011;73179;50.978;16.998;2024-02-26T01:17:35;53.97;;;32.03;;
76604;SDS011;73179;50.978;16.998;2024-02-26T01:20:01;54.38;;;32.05;;
76604;SDS011;73179;50.978;16.998;2024-02-26T01:22:27;51.13;;;28.73;;
76604;SDS011;73179;50.978;16.998;2024-02-26T01:24:54;55.47;;;29.80;;
76604;SDS011;73179;50.978;16.998;2024-02-26T01:27:20;51.90;;;27.48;;
76604;SDS011;73179;50.978;16.998;2024-02-26T01:29:46;61.28;;;33.03;;
76604;SDS011;73179;50.978;16.998;2024-02-26T01:32:12;51.58;;;29.05;;
76604;SDS011;73179;50.978;16.998;2024-02-26T01:34:38;48.60;;;30.48;;
76604;SDS011;73179;50.978;16.998;2024-02-26T01:37:04;56.58;;;32.70;;
76604;SDS011;73179;50.978;16.998;2024-02-26T01:39:31;56.33;;;32.35;;
76604;SDS011;73179;50.978;16.998;2024-02-26T01:41:56;61.78;;;37.33;;
76604;SDS011;73179;50.978;16.998;2024-02-26T01:44:23;69.75;;;37.75;;
76604;SDS011;73179;50.978;16.998;2024-02-26T01:46:49;61.97;;;33.28;;
76604;SDS011;73179;50.978;16.998;2024-02-26T01:49:15;68.43;;;34.08;;
76604;SDS011;73179;50.978;16.998;2024-02-26T01:51:41;71.88;;;38.10;;
76604;SDS011;73179;50.978;16.998;2024-02-26T01:54:10;63.85;;;36.03;;
76604;SDS011;73179;50.978;16.998;2024-02-26T01:56:36;58.10;;;34.13;;
76604;SDS011;73179;50.978;16.998;2024-02-26T01:59:05;60.67;;;33.42;;
76604;SDS011;73179;50.978;16.998;2024-02-26T02:01:34;60.53;;;33.22;;
76604;SDS011;73179;50.978;16.998;2024-02-26T02:04:02;64.28;;;37.90;;
76604;SDS011;73179;50.978;16.998;2024-02-26T02:06:28;63.22;;;35.83;;
76604;SDS011;73179;50.978;16.998;2024-02-26T02:08:55;67.45;;;38.25;;
76604;SDS011;73179;50.978;16.998;2024-02-26T02:11:21;57.67;;;31.80;;
76604;SDS011;73179;50.978;16.998;2024-02-26T02:13:48;59.72;;;32.33;;
76604;SDS011;73179;50.978;16.998;2024-02-26T02:16:14;64.80;;;32.72;;
76604;SDS011;73179;50.978;16.998;2024-02-26T02:18:40;56.30;;;33.33;;
76604;SDS011;73179;50.978;16.998;2024-02-26T02:21:06;51.60;;;29.27;;
76604;SDS011;73179;50.978;16.998;2024-02-26T02:23:33;52.08;;;29.98;;
76604;SDS011;73179;50.978;16.998;2024-02-26T02:25:59;52.25;;;27.65;;
76604;SDS011;73179;50.978;16.998;2024-02-26T02:28:25;47.30;;;27.48;;
76604;SDS011;73179;50.978;16.998;2024-02-26T02:30:52;52.53;;;24.92;;
76604;SDS011;73179;50.978;16.998;2024-02-26T02:33:20;48.85;;;23.88;;
76604;SDS011;73179;50.978;16.998;2024-02-26T02:35:48;45.40;;;26.23;;
76604;SDS011;73179;50.978;16.998;2024-02-26T02:38:16;47.20;;;25.92;;
76604;SDS011;73179;50.978;16.998;2024-02-26T02:40:42;48.10;;;25.75;;
76604;SDS011;73179;50.978;16.998;2024-02-26T02:43:08;49.60;;;26.45;;
76604;SDS011;73179;50.978;16.998;2024-02-26T02:45:34;52.03;;;25.48;;
76604;SDS011;73179;50.978;16.998;2024-02-26T02:48:00;46.58;;;25.27;;
76604;SDS011;73179;50.978;16.998;2024-02-26T02:50:26;51.42;;;27.60;;
76604;SDS011;73179;50.978;16.998;2024-02-26T02:52:54;46.10;;;27.10;;
76604;SDS011;73179;50.978;16.998;2024-02-26T02:55:20;55.22;;;31.33;;
76604;SDS011;73179;50.978;16.998;2024-02-26T02:57:47;51.53;;;31.05;;
76604;SDS011;73179;50.978;16.998;2024-02-26T03:00:13;54.65;;;30.48;;
76604;SDS011;73179;50.978;16.998;2024-02-26T03:02:39;56.75;;;32.58;;
76604;SDS011;73179;50.978;16.998;2024-02-26T03:05:05;57.72;;;32.90;;
76604;SDS011;73179;50.978;16.998;2024-02-26T03:07:32;63.13;;;33.83;;
76604;SDS011;73179;50.978;16.998;2024-02-26T03:09:58;58.40;;;34.00;;
76604;SDS011;73179;50.978;16.998;2024-02-26T03:12:24;56.20;;;33.13;;
76604;SDS011;73179;50.978;16.998;2024-02-26T03:14:50;61.20;;;35.72;;
76604;SDS011;73179;50.978;16.998;2024-02-26T03:17:20;57.55;;;32.65;;
76604;SDS011;73179;50.978;16.998;2024-02-26T03:19:46;50.88;;;28.45;;
76604;SDS011;73179;50.978;16.998;2024-02-26T03:22:13;48.95;;;28.60;;
76604;SDS011;73179;50.978;16.998;2024-02-26T03:24:39;52.78;;;30.90;;
76604;SDS011;73179;50.978;16.998;2024-02-26T03:27:05;62.45;;;32.08;;
76604;SDS011;73179;50.978;16.998;2024-02-26T03:29:37;51.63;;;28.05;;
76604;SDS011;73179;50.978;16.998;2024-02-26T03:32:05;48.75;;;26.35;;
76604;SDS011;73179;50.978;16.998;2024-02-26T03:34:31;45.30;;;24.23;;
76604;SDS011;73179;50.978;16.998;2024-02-26T03:37:01;48.28;;;25.83;;
76604;SDS011;73179;50.978;16.998;2024-02-26T03:39:27;43.22;;;23.77;;
76604;SDS011;73179;50.978;16.998;2024-02-26T03:41:54;41.47;;;23.63;;
76604;SDS011;73179;50.978;16.998;2024-02-26T03:46:52;40.40;;;20.90;;
76604;SDS011;73179;50.978;16.998;2024-02-26T03:49:18;34.70;;;20.95;;
76604;SDS011;73179;50.978;16.998;2024-02-26T03:51:44;40.33;;;21.67;;
76604;SDS011;73179;50.978;16.998;2024-02-26T03:54:10;37.65;;;21.55;;
76604;SDS011;73179;50.978;16.998;2024-02-26T03:56:38;34.45;;;21.55;;
76604;SDS011;73179;50.978;16.998;2024-02-26T03:59:04;37.63;;;20.90;;
76604;SDS011;73179;50.978;16.998;2024-02-26T04:01:30;39.92;;;20.88;;
76604;SDS011;73179;50.978;16.998;2024-02-26T04:03:56;38.60;;;20.20;;
76604;SDS011;73179;50.978;16.998;2024-02-26T04:06:22;35.05;;;19.33;;
76604;SDS011;73179;50.978;16.998;2024-02-26T04:08:48;36.70;;;20.05;;
76604;SDS011;73179;50.978;16.998;2024-02-26T04:11:15;41.97;;;21.45;;
76604;SDS011;73179;50.978;16.998;2024-02-26T04:13:43;47.70;;;23.90;;
76604;SDS011;73179;50.978;16.998;2024-02-26T04:16:15;40.90;;;21.38;;
76604;SDS011;73179;50.978;16.998;2024-02-26T04:18:42;41.03;;;24.80;;
76604;SDS011;73179;50.978;16.998;2024-02-26T04:21:08;45.15;;;25.95;;
76604;SDS011;73179;50.978;16.998;2024-02-26T04:23:34;40.90;;;21.27;;
76604;SDS011;73179;50.978;16.998;2024-02-26T04:26:00;47.22;;;22.58;;
76604;SDS011;73179;50.978;16.998;2024-02-26T04:28:26;39.25;;;20.15;;
76604;SDS011;73179;50.978;16.998;2024-02-26T04:30:55;37.83;;;21.63;;
76604;SDS011;73179;50.978;16.998;2024-02-26T04:33:21;35.97;;;19.60;;
76604;SDS011;73179;50.978;16.998;2024-02-26T04:35:47;40.67;;;21.48;;
76604;SDS011;73179;50.978;16.998;2024-02-26T04:38:13;37.40;;;21.13;;
76604;SDS011;73179;50.978;16.998;2024-02-26T04:40:40;38.28;;;20.67;;
76604;SDS011;73179;50.978;16.998;2024-02-26T04:43:06;33.75;;;20.63;;
76604;SDS011;73179;50.978;16.998;2024-02-26T04:45:32;36.88;;;21.65;;
76604;SDS011;73179;50.978;16.998;2024-02-26T04:47:58;42.85;;;24.92;;
76604;SDS011;73179;50.978;16.998;2024-02-26T04:50:25;46.20;;;24.65;;
76604;SDS011;73179;50.978;16.998;2024-02-26T04:52:51;43.83;;;25.55;;
76604;SDS011;73179;50.978;16.998;2024-02-26T04:55:17;38.50;;;23.08;;
76604;SDS011;73179;50.978;16.998;2024-02-26T04:57:43;40.78;;;22.85;;
76604;SDS011;73179;50.978;16.998;2024-02-26T05:00:09;40.28;;;20.90;;
76604;SDS011;73179;50.978;16.998;2024-02-26T05:02:36;39.88;;;23.10;;
76604;SDS011;73179;50.978;16.998;2024-02-26T05:05:05;39.05;;;19.85;;
76604;SDS011;73179;50.978;16.998;2024-02-26T05:07:31;38.42;;;22.35;;
76604;SDS011;73179;50.978;16.998;2024-02-26T05:09:58;40.33;;;23.65;;
76604;SDS011;73179;50.978;16.998;2024-02-26T05:12:24;44.05;;;24.58;;
76604;SDS011;73179;50.978;16.998;2024-02-26T05:14:50;39.47;;;23.55;;
76604;SDS011;73179;50.978;16.998;2024-02-26T05:17:16;47.90;;;26.05;;
76604;SDS011;73179;50.978;16.998;2024-02-26T05:19:43;52.38;;;29.15;;
76604;SDS011;73179;50.978;16.998;2024-02-26T05:22:09;45.80;;;25.45;;
76604;SDS011;73179;50.978;16.998;2024-02-26T05:24:37;47.40;;;25.95;;
76604;SDS011;73179;50.978;16.998;2024-02-26T05:27:04;48.53;;;28.42;;
76604;SDS011;73179;50.978;16.998;2024-02-26T05:29:30;44.20;;;25.48;;
76604;SDS011;73179;50.978;16.998;2024-02-26T05:31:56;50.80;;;28.38;;
76604;SDS011;73179;50.978;16.998;2024-02-26T05:34:23;45.78;;;24.95;;
76604;SDS011;73179;50.978;16.998;2024-02-26T05:36:49;42.50;;;23.95;;
76604;SDS011;73179;50.978;16.998;2024-02-26T05:39:15;46.70;;;25.15;;
76604;SDS011;73179;50.978;16.998;2024-02-26T05:41:41;44.13;;;25.20;;
76604;SDS011;73179;50.978;16.998;2024-02-26T05:44:09;53.00;;;30.15;;
76604;SDS011;73179;50.978;16.998;2024-02-26T05:46:36;55.67;;;32.13;;
76604;SDS011;73179;50.978;16.998;2024-02-26T05:49:03;53.90;;;28.05;;
76604;SDS011;73179;50.978;16.998;2024-02-26T05:51:29;64.38;;;34.15;;
76604;SDS011;73179;50.978;16.998;2024-02-26T05:54:05;67.30;;;36.15;;
76604;SDS011;73179;50.978;16.998;2024-02-26T05:57:04;61.17;;;31.13;;
76604;SDS011;73179;50.978;16.998;2024-02-26T06:00:14;61.47;;;31.40;;
76604;SDS011;73179;50.978;16.998;2024-02-26T06:03:10;60.00;;;31.98;;
76604;SDS011;73179;50.978;16.998;2024-02-26T06:06:24;53.42;;;26.90;;
76604;SDS011;73179;50.978;16.998;2024-02-26T06:09:18;49.40;;;24.10;;
76604;SDS011;73179;50.978;16.998;2024-02-26T06:11:47;53.70;;;27.00;;
76604;SDS011;73179;50.978;16.998;2024-02-26T06:14:13;48.30;;;27.00;;
76604;SDS011;73179;50.978;16.998;2024-02-26T06:16:43;50.58;;;24.23;;
76604;SDS011;73179;50.978;16.998;2024-02-26T06:19:10;53.72;;;27.15;;
76604;SDS011;73179;50.978;16.998;2024-02-26T06:21:36;52.88;;;25.55;;
76604;SDS011;73179;50.978;16.998;2024-02-26T06:24:02;57.03;;;26.73;;
76604;SDS011;73179;50.978;16.998;2024-02-26T06:26:28;44.25;;;22.35;;
76604;SDS011;73179;50.978;16.998;2024-02-26T06:28:55;46.20;;;24.75;;
76604;SDS011;73179;50.978;16.998;2024-02-26T06:31:21;41.65;;;23.23;;
76604;SDS011;73179;50.978;16.998;2024-02-26T06:33:49;37.10;;;22.05;;
76604;SDS011;73179;50.978;16.998;2024-02-26T06:36:18;41.20;;;22.08;;
76604;SDS011;73179;50.978;16.998;2024-02-26T06:38:44;41.97;;;25.33;;
76604;SDS011;73179;50.978;16.998;2024-02-26T06:41:10;46.40;;;25.55;;
76604;SDS011;73179;50.978;16.998;2024-02-26T06:43:37;40.47;;;22.23;;
76604;SDS011;73179;50.978;16.998;2024-02-26T06:46:03;41.90;;;24.95;;
76604;SDS011;73179;50.978;16.998;2024-02-26T06:48:29;45.58;;;25.48;;
76604;SDS011;73179;50.978;16.998;2024-02-26T06:50:55;49.33;;;27.17;;
76604;SDS011;73179;50.978;16.998;2024-02-26T06:53:21;48.80;;;26.42;;
76604;SDS011;73179;50.978;16.998;2024-02-26T06:55:48;42.65;;;24.75;;
76604;SDS011;73179;50.978;16.998;2024-02-26T06:58:22;47.42;;;27.73;;
76604;SDS011;73179;50.978;16.998;2024-02-26T07:00:48;50.35;;;28.50;;
76604;SDS011;73179;50.978;16.998;2024-02-26T07:03:15;54.20;;;30.55;;
76604;SDS011;73179;50.978;16.998;2024-02-26T07:05:41;51.88;;;28.00;;
76604;SDS011;73179;50.978;16.998;2024-02-26T07:08:08;50.45;;;28.30;;
76604;SDS011;73179;50.978;16.998;2024-02-26T07:10:37;49.75;;;27.83;;
76604;SDS011;73179;50.978;16.998;2024-02-26T07:13:04;51.88;;;28.17;;
76604;SDS011;73179;50.978;16.998;2024-02-26T07:15:30;54.38;;;28.40;;
76604;SDS011;73179;50.978;16.998;2024-02-26T07:17:58;41.88;;;24.30;;
76604;SDS011;73179;50.978;16.998;2024-02-26T07:20:31;47.45;;;25.42;;
76604;SDS011;73179;50.978;16.998;2024-02-26T07:22:58;42.88;;;25.02;;
76604;SDS011;73179;50.978;16.998;2024-02-26T07:25:23;42.53;;;24.58;;
76604;SDS011;73179;50.978;16.998;2024-02-26T07:27:50;41.83;;;24.00;;
76604;SDS011;73179;50.978;16.998;2024-02-26T07:30:16;45.40;;;24.00;;
76604;SDS011;73179;50.978;16.998;2024-02-26T07:32:42;37.83;;;23.63;;
76604;SDS011;73179;50.978;16.998;2024-02-26T07:35:08;40.65;;;22.40;;
76604;SDS011;73179;50.978;16.998;2024-02-26T07:37:35;37.47;;;22.30;;
76604;SDS011;73179;50.978;16.998;2024-02-26T07:40:06;42.78;;;25.38;;
76604;SDS011;73179;50.978;16.998;2024-02-26T07:42:37;41.33;;;27.65;;
76604;SDS011;73179;50.978;16.998;2024-02-26T07:45:04;44.42;;;28.77;;
76604;SDS011;73179;50.978;16.998;2024-02-26T07:47:31;44.13;;;27.05;;
76604;SDS011;73179;50.978;16.998;2024-02-26T07:50:00;39.47;;;25.58;;
76604;SDS011;73179;50.978;16.998;2024-02-26T07:52:26;39.63;;;25.33;;
76604;SDS011;73179;50.978;16.998;2024-02-26T07:54:52;41.50;;;26.48;;
76604;SDS011;73179;50.978;16.998;2024-02-26T07:57:18;41.72;;;27.85;;
76604;SDS011;73179;50.978;16.998;2024-02-26T07:59:50;40.88;;;24.42;;
76604;SDS011;73179;50.978;16.998;2024-02-26T08:02:17;41.33;;;25.20;;
76604;SDS011;73179;50.978;16.998;2024-02-26T08:04:43;40.53;;;25.00;;
76604;SDS011;73179;50.978;16.998;2024-02-26T08:07:10;40.65;;;25.85;;
76604;SDS011;73179;50.978;16.998;2024-02-26T08:09:36;37.45;;;25.67;;
76604;SDS011;73179;50.978;16.998;2024-02-26T08:12:03;34.25;;;23.42;;
76604;SDS011;73179;50.978;16.998;2024-02-26T08:14:29;33.03;;;22.60;;
76604;SDS011;73179;50.978;16.998;2024-02-26T08:17:03;29.08;;;18.77;;
76604;SDS011;73179;50.978;16.998;2024-02-26T08:19:34;31.63;;;19.77;;
76604;SDS011;73179;50.978;16.998;2024-02-26T08:22:02;29.88;;;19.38;;
76604;SDS011;73179;50.978;16.998;2024-02-26T08:24:28;25.48;;;19.05;;
76604;SDS011;73179;50.978;16.998;2024-02-26T08:26:54;25.80;;;16.35;;
76604;SDS011;73179;50.978;16.998;2024-02-26T08:29:22;27.73;;;18.05;;
76604;SDS011;73179;50.978;16.998;2024-02-26T08:31:51;28.20;;;16.50;;
76604;SDS011;73179;50.978;16.998;2024-02-26T08:34:18;24.13;;;16.23;;
76604;SDS011;73179;50.978;16.998;2024-02-26T08:36:48;25.73;;;15.55;;
76604;SDS011;73179;50.978;16.998;2024-02-26T08:39:16;21.63;;;14.40;;
76604;SDS011;73179;50.978;16.998;2024-02-26T08:41:44;20.00;;;14.90;;
76604;SDS011;73179;50.978;16.998;2024-02-26T08:44:10;22.27;;;14.55;;
76604;SDS011;73179;50.978;16.998;2024-02-26T08:46:38;19.42;;;13.88;;
76604;SDS011;73179;50.978;16.998;2024-02-26T08:49:05;20.95;;;15.50;;
76604;SDS011;73179;50.978;16.998;2024-02-26T08:51:33;21.40;;;14.25;;
76604;SDS011;73179;50.978;16.998;2024-02-26T08:54:01;19.92;;;13.68;;
76604;SDS011;73179;50.978;16.998;2024-02-26T08:56:40;20.23;;;14.05;;
76604;SDS011;73179;50.978;16.998;2024-02-26T08:59:06;21.00;;;14.55;;
76604;SDS011;73179;50.978;16.998;2024-02-26T09:01:37;22.65;;;15.32;;
76604;SDS011;73179;50.978;16.998;2024-02-26T09:04:03;21.13;;;13.98;;
76604;SDS011;73179;50.978;16.998;2024-02-26T09:06:33;21.52;;;16.38;;
76604;SDS011;73179;50.978;16.998;2024-02-26T09:09:01;21.95;;;16.70;;
76604;SDS011;73179;50.978;16.998;2024-02-26T09:11:32;21.98;;;16.48;;
76604;SDS011;73179;50.978;16.998;2024-02-26T09:13:58;23.58;;;16.58;;
76604;SDS011;73179;50.978;16.998;2024-02-26T09:16:25;21.30;;;15.27;;
76604;SDS011;73179;50.978;16.998;2024-02-26T09:18:51;23.90;;;18.70;;
76604;SDS011;73179;50.978;16.998;2024-02-26T09:21:22;20.13;;;16.35;;
76604;SDS011;73179;50.978;16.998;2024-02-26T09:23:52;23.95;;;17.83;;
76604;SDS011;73179;50.978;16.998;2024-02-26T09:26:20;16.58;;;14.13;;
76604;SDS011;73179;50.978;16.998;2024-02-26T09:28:46;21.13;;;14.93;;
76604;SDS011;73179;50.978;16.998;2024-02-26T09:31:15;17.63;;;14.25;;
76604;SDS011;73179;50.978;16.998;2024-02-26T09:33:45;18.48;;;13.27;;
76604;SDS011;73179;50.978;16.998;2024-02-26T09:36:27;17.50;;;13.20;;
76604;SDS011;73179;50.978;16.998;2024-02-26T09:38:54;18.08;;;13.18;;
76604;SDS011;73179;50.978;16.998;2024-02-26T09:41:20;15.90;;;12.57;;
76604;SDS011;73179;50.978;16.998;2024-02-26T09:43:50;14.98;;;11.30;;
76604;SDS011;73179;50.978;16.998;2024-02-26T09:46:24;12.57;;;10.20;;
76604;SDS011;73179;50.978;16.998;2024-02-26T09:48:52;15.73;;;12.40;;
76604;SDS011;73179;50.978;16.998;2024-02-26T09:51:19;14.88;;;12.00;;
76604;SDS011;73179;50.978;16.998;2024-02-26T09:53:52;15.25;;;11.10;;
76604;SDS011;73179;50.978;16.998;2024-02-26T09:56:20;16.40;;;11.55;;
76604;SDS011;73179;50.978;16.998;2024-02-26T09:58:54;14.27;;;10.93;;
76604;SDS011;73179;50.978;16.998;2024-02-26T10:01:58;13.05;;;9.57;;
76604;SDS011;73179;50.978;16.998;2024-02-26T10:04:28;11.73;;;8.95;;
76604;SDS011;73179;50.978;16.998;2024-02-26T10:06:59;12.07;;;9.77;;
76604;SDS011;73179;50.978;16.998;2024-02-26T10:09:39;13.25;;;9.50;;
76604;SDS011;73179;50.978;16.998;2024-02-26T10:12:07;15.40;;;10.30;;
76604;SDS011;73179;50.978;16.998;2024-02-26T10:14:37;14.23;;;9.02;;
76604;SDS011;73179;50.978;16.998;2024-02-26T10:17:07;11.73;;;9.32;;
76604;SDS011;73179;50.978;16.998;2024-02-26T10:19:35;14.98;;;9.77;;
76604;SDS011;73179;50.978;16.998;2024-02-26T10:22:02;9.38;;;7.70;;
76604;SDS011;73179;50.978;16.998;2024-02-26T10:24:30;9.88;;;8.63;;
76604;SDS011;73179;50.978;16.998;2024-02-26T10:26:57;11.13;;;8.63;;
76604;SDS011;73179;50.978;16.998;2024-02-26T10:29:24;11.05;;;8.55;;
76604;SDS011;73179;50.978;16.998;2024-02-26T10:31:51;12.23;;;8.73;;
76604;SDS011;73179;50.978;16.998;2024-02-26T10:34:18;11.25;;;9.15;;
76604;SDS011;73179;50.978;16.998;2024-02-26T10:36:45;11.07;;;8.82;;
76604;SDS011;73179;50.978;16.998;2024-02-26T10:39:15;14.50;;;9.70;;
76604;SDS011;73179;50.978;16.998;2024-02-26T10:41:42;14.05;;;9.07;;
76604;SDS011;73179;50.978;16.998;2024-02-26T10:44:12;11.88;;;8.68;;
76604;SDS011;73179;50.978;16.998;2024-02-26T10:46:42;10.75;;;7.88;;
76604;SDS011;73179;50.978;16.998;2024-02-26T10:49:15;9.57;;;7.85;;
76604;SDS011;73179;50.978;16.998;2024-02-26T10:51:45;8.68;;;6.80;;
76604;SDS011;73179;50.978;16.998;2024-02-26T10:54:22;7.38;;;6.50;;
76604;SDS011;73179;50.978;16.998;2024-02-26T10:56:54;11.85;;;7.30;;
76604;SDS011;73179;50.978;16.998;2024-02-26T10:59:25;9.85;;;6.95;;
76604;SDS011;73179;50.978;16.998;2024-02-26T11:01:53;8.43;;;6.30;;
76604;SDS011;73179;50.978;16.998;2024-02-26T11:04:21;7.63;;;6.40;;
76604;SDS011;73179;50.978;16.998;2024-02-26T11:06:48;10.25;;;6.78;;
76604;SDS011;73179;50.978;16.998;2024-02-26T11:09:17;7.85;;;6.10;;
76604;SDS011;73179;50.978;16.998;2024-02-26T11:11:46;7.45;;;5.50;;
76604;SDS011;73179;50.978;16.998;2024-02-26T11:14:15;6.57;;;4.88;;
76604;SDS011;73179;50.978;16.998;2024-02-26T11:16:42;9.02;;;4.50;;
76604;SDS011;73179;50.978;16.998;2024-02-26T11:19:11;6.57;;;4.72;;
76604;SDS011;73179;50.978;16.998;2024-02-26T11:21:39;7.25;;;5.63;;
76604;SDS011;73179;50.978;16.998;2024-02-26T11:24:12;6.25;;;4.80;;
76604;SDS011;73179;50.978;16.998;2024-02-26T11:26:43;6.18;;;4.75;;
76604;SDS011;73179;50.978;16.998;2024-02-26T11:29:17;8.55;;;5.25;;
76604;SDS011;73179;50.978;16.998;2024-02-26T11:31:47;7.93;;;5.55;;
76604;SDS011;73179;50.978;16.998;2024-02-26T11:34:15;7.43;;;4.97;;
76604;SDS011;73179;50.978;16.998;2024-02-26T11:36:43;5.13;;;4.45;;
76604;SDS011;73179;50.978;16.998;2024-02-26T11:39:11;8.45;;;5.40;;
76604;SDS011;73179;50.978;16.998;2024-02-26T11:41:38;6.25;;;4.30;;
76604;SDS011;73179;50.978;16.998;2024-02-26T11:44:12;6.53;;;4.55;;
76604;SDS011;73179;50.978;16.998;2024-02-26T11:46:42;6.97;;;5.50;;
76604;SDS011;73179;50.978;16.998;2024-02-26T11:51:54;7.28;;;4.50;;
76604;SDS011;73179;50.978;16.998;2024-02-26T11:54:43;5.72;;;4.82;;
76604;SDS011;73179;50.978;16.998;2024-02-26T11:57:23;7.80;;;4.85;;
76604;SDS011;73179;50.978;16.998;2024-02-26T11:59:55;6.30;;;4.50;;
76604;SDS011;73179;50.978;16.998;2024-02-26T12:05:19;8.23;;;4.85;;
76604;SDS011;73179;50.978;16.998;2024-02-26T12:07:55;7.38;;;5.05;;
76604;SDS011;73179;50.978;16.998;2024-02-26T12:10:27;6.70;;;4.68;;
76604;SDS011;73179;50.978;16.998;2024-02-26T12:13:06;8.65;;;4.63;;
76604;SDS011;73179;50.978;16.998;2024-02-26T12:15:38;5.97;;;4.63;;
76604;SDS011;73179;50.978;16.998;2024-02-26T12:18:07;6.82;;;4.68;;
76604;SDS011;73179;50.978;16.998;2024-02-26T12:20:39;6.78;;;4.95;;
76604;SDS011;73179;50.978;16.998;2024-02-26T12:23:05;6.50;;;5.00;;
76604;SDS011;73179;50.978;16.998;2024-02-26T12:25:33;5.63;;;4.50;;
76604;SDS011;73179;50.978;16.998;2024-02-26T12:28:00;5.70;;;4.55;;
76604;SDS011;73179;50.978;16.998;2024-02-26T12:30:27;8.70;;;4.82;;
76604;SDS011;73179;50.978;16.998;2024-02-26T12:32:55;5.68;;;4.18;;
76604;SDS011;73179;50.978;16.998;2024-02-26T12:35:26;8.45;;;5.15;;
76604;SDS011;73179;50.978;16.998;2024-02-26T12:37:54;7.57;;;5.28;;
76604;SDS011;73179;50.978;16.998;2024-02-26T12:40:20;5.72;;;4.30;;
76604;SDS011;73179;50.978;16.998;2024-02-26T12:42:47;7.50;;;4.78;;
76604;SDS011;73179;50.978;16.998;2024-02-26T12:45:14;6.65;;;4.30;;
76604;SDS011;73179;50.978;16.998;2024-02-26T12:47:42;7.90;;;5.35;;
76604;SDS011;73179;50.978;16.998;2024-02-26T12:54:10;6.32;;;5.32;;
76604;SDS011;73179;50.978;16.998;2024-02-26T12:56:56;8.25;;;5.10;;
76604;SDS011;73179;50.978;16.998;2024-02-26T12:59:23;6.43;;;5.15;;
76604;SDS011;73179;50.978;16.998;2024-02-26T13:01:49;6.97;;;5.22;;
76604;SDS011;73179;50.978;16.998;2024-02-26T13:04:16;7.03;;;5.65;;
76604;SDS011;73179;50.978;16.998;2024-02-26T13:06:46;7.05;;;5.15;;
76604;SDS011;73179;50.978;16.998;2024-02-26T13:09:13;6.32;;;4.55;;
76604;SDS011;73179;50.978;16.998;2024-02-26T13:11:41;8.25;;;4.75;;
76604;SDS011;73179;50.978;16.998;2024-02-26T13:14:07;5.60;;;4.65;;
76604;SDS011;73179;50.978;16.998;2024-02-26T13:16:34;6.85;;;4.88;;
76604;SDS011;73179;50.978;16.998;2024-02-26T13:19:10;8.45;;;5.05;;
76604;SDS011;73179;50.978;16.998;2024-02-26T13:21:37;6.35;;;4.88;;
76604;SDS011;73179;50.978;16.998;2024-02-26T13:24:03;8.32;;;4.85;;
76604;SDS011;73179;50.978;16.998;2024-02-26T13:26:33;6.65;;;4.90;;
76604;SDS011;73179;50.978;16.998;2024-02-26T13:29:03;5.97;;;4.55;;
76604;SDS011;73179;50.978;16.998;2024-02-26T13:31:30;6.53;;;4.93;;
76604;SDS011;73179;50.978;16.998;2024-02-26T13:33:59;7.68;;;5.03;;
76604;SDS011;73179;50.978;16.998;2024-02-26T13:36:26;5.22;;;4.32;;
76604;SDS011;73179;50.978;16.998;2024-02-26T13:38:53;5.70;;;4.65;;
76604;SDS011;73179;50.978;16.998;2024-02-26T13:41:25;6.90;;;5.05;;
76604;SDS011;73179;50.978;16.998;2024-02-26T13:43:51;6.40;;;4.63;;
76604;SDS011;73179;50.978;16.998;2024-02-26T13:46:18;9.05;;;4.82;;
76604;SDS011;73179;50.978;16.998;2024-02-26T13:48:44;5.85;;;4.57;;
76604;SDS011;73179;50.978;16.998;2024-02-26T13:51:10;6.40;;;4.47;;
76604;SDS011;73179;50.978;16.998;2024-02-26T13:53:36;6.43;;;4.47;;
76604;SDS011;73179;50.978;16.998;2024-02-26T13:56:03;7.30;;;4.30;;
76604;SDS011;73179;50.978;16.998;2024-02-26T13:58:32;5.38;;;3.90;;
76604;SDS011;73179;50.978;16.998;2024-02-26T14:01:00;5.97;;;4.43;;
76604;SDS011;73179;50.978;16.998;2024-02-26T14:03:29;5.85;;;4.30;;
76604;SDS011;73179;50.978;16.998;2024-02-26T14:05:56;6.85;;;4.35;;
76604;SDS011;73179;50.978;16.998;2024-02-26T14:08:23;7.53;;;4.68;;
76604;SDS011;73179;50.978;16.998;2024-02-26T14:10:50;5.22;;;4.07;;
76604;SDS011;73179;50.978;16.998;2024-02-26T14:13:19;5.85;;;4.53;;
76604;SDS011;73179;50.978;16.998;2024-02-26T14:15:46;6.78;;;5.07;;
76604;SDS011;73179;50.978;16.998;2024-02-26T14:18:12;8.35;;;4.97;;
76604;SDS011;73179;50.978;16.998;2024-02-26T14:20:38;9.73;;;6.03;;
76604;SDS011;73179;50.978;16.998;2024-02-26T14:23:06;9.77;;;6.18;;
76604;SDS011;73179;50.978;16.998;2024-02-26T14:25:33;11.30;;;7.57;;
76604;SDS011;73179;50.978;16.998;2024-02-26T14:28:02;8.82;;;6.43;;
76604;SDS011;73179;50.978;16.998;2024-02-26T14:30:31;7.68;;;5.32;;
76604;SDS011;73179;50.978;16.998;2024-02-26T14:33:04;10.02;;;6.28;;
76604;SDS011;73179;50.978;16.998;2024-02-26T14:35:35;6.97;;;5.22;;